Leland, IL (60531)

5:28 AM CDT on April 27, 2017 (GMT -0500)
Farm 34 | | Change Station

Elev 699 ft 41.59 °N, 88.85 °W | Updated 12 minutes ago

Rain
Rain
44.9 °F
Feels Like 38 °F
N
16.0
Wind Variable Wind from NW
Gusts 27.0 mph

Today
High -- | Low -- °F
--% Chance of Precip.
Yesterday
High -- | Low -- °F
Precip. -- in
Pressure 29.32 in
Visibility 6.0 miles
Clouds Mostly Cloudy 700 ft
Mostly Cloudy 1700 ft
Overcast 3300 ft
Windchill 38 °F
Dew Point 44 °F
Humidity 95%
Rainfall 0.32 in
Snow Depth Not available.
5:57 AM 7:49 PM
New Moon, 1% visible
SPECI KARR 271023Z AUTO 27015KT 6SM -RA BR BKN007 BKN017 OVC033 10/09 A2932 RMK AO2 P0004 T01000089
Pressure 29.32 in
Visibility 6.0 miles
Clouds Mostly Cloudy 700 ft
Mostly Cloudy 1700 ft
Overcast 3300 ft
Windchill 38 °F
Dew Point 44 °F
Humidity 95%
Rainfall 0.32 in
Snow Depth Not available.
5:57 AM 7:49 PM
New Moon, 1% visible
SPECI KARR 271023Z AUTO 27015KT 6SM -RA BR BKN007 BKN017 OVC033 10/09 A2932 RMK AO2 P0004 T01000089

Get Severe Weather Alerts

Thanks for signing up!

Be on the lookout for a verification email in your inbox.

You'll start receiving the daily forecast at 8 AM.

×

10-Day Weather Forecast

Almanac

Astronomy

Apr. 27, 2017 Rise Set
Actual Time
Civil Twilight
Nautical Twilight
Astronomical Twilight
Moon
Length of Visible Light
Length of Day
Tomorrow will be .
, % of the Moon is Illuminated

Today's Extremes

State Highs State Lows

Community

WunderPhotos

WunderBlog® & News

Nearby

Air Quality

  Air Quality AQ Index Pollutant
Not available.

Snow Depth

Station Depth Elevation

Earthquake Activity

City Distance Mag. Time & Date
Minimum magnitude displayed is 2.5.

Coastal Water Temperatures

Place Temperature

Stations

Nearby Weather Stations

Station Location Temp. Windchill Dew Point Humidity Wind Precip. Elev Updated Type
                   

Watches & Warnings

There are currently no watches in effect.